sensor_id;sensor_type;location;lat;lon;timestamp;P1;durP1;ratioP1;P2;durP2;ratioP2
75990;SDS011;64673;52.276;10.560;2023-02-19T00:01:08;7.47;;;3.13;;
75990;SDS011;64673;52.276;10.560;2023-02-19T00:08:30;12.35;;;3.20;;
75990;SDS011;64673;52.276;10.560;2023-02-19T00:13:29;8.00;;;2.92;;
75990;SDS011;64673;52.276;10.560;2023-02-19T00:15:54;5.00;;;2.80;;
75990;SDS011;64673;52.276;10.560;2023-02-19T00:18:20;7.43;;;3.25;;
75990;SDS011;64673;52.276;10.560;2023-02-19T00:20:46;9.68;;;3.53;;
75990;SDS011;64673;52.276;10.560;2023-02-19T00:23:11;12.93;;;4.05;;
75990;SDS011;64673;52.276;10.560;2023-02-19T00:25:36;5.40;;;2.83;;
75990;SDS011;64673;52.276;10.560;2023-02-19T00:28:02;8.50;;;3.47;;
75990;SDS011;64673;52.276;10.560;2023-02-19T00:30:28;7.50;;;3.30;;
75990;SDS011;64673;52.276;10.560;2023-02-19T00:32:53;8.65;;;3.20;;
75990;SDS011;64673;52.276;10.560;2023-02-19T00:35:19;10.07;;;3.30;;
75990;SDS011;64673;52.276;10.560;2023-02-19T00:37:45;10.52;;;3.72;;
75990;SDS011;64673;52.276;10.560;2023-02-19T00:40:10;12.43;;;4.07;;
75990;SDS011;64673;52.276;10.560;2023-02-19T00:42:35;11.93;;;4.45;;
75990;SDS011;64673;52.276;10.560;2023-02-19T00:45:01;12.40;;;5.13;;
75990;SDS011;64673;52.276;10.560;2023-02-19T00:47:26;11.88;;;4.30;;
75990;SDS011;64673;52.276;10.560;2023-02-19T00:49:51;12.65;;;4.55;;
75990;SDS011;64673;52.276;10.560;2023-02-19T00:52:17;10.77;;;4.32;;
75990;SDS011;64673;52.276;10.560;2023-02-19T00:54:42;11.00;;;4.38;;
75990;SDS011;64673;52.276;10.560;2023-02-19T00:57:07;10.23;;;4.40;;
75990;SDS011;64673;52.276;10.560;2023-02-19T00:59:33;10.45;;;4.47;;
75990;SDS011;64673;52.276;10.560;2023-02-19T01:02:00;12.85;;;4.95;;
75990;SDS011;64673;52.276;10.560;2023-02-19T01:04:26;11.15;;;4.28;;
75990;SDS011;64673;52.276;10.560;2023-02-19T01:06:51;9.27;;;4.03;;
75990;SDS011;64673;52.276;10.560;2023-02-19T01:09:16;11.13;;;4.10;;
75990;SDS011;64673;52.276;10.560;2023-02-19T01:11:42;9.75;;;3.83;;
75990;SDS011;64673;52.276;10.560;2023-02-19T01:14:07;8.80;;;3.63;;
75990;SDS011;64673;52.276;10.560;2023-02-19T01:16:33;8.75;;;3.30;;
75990;SDS011;64673;52.276;10.560;2023-02-19T01:18:59;6.63;;;3.20;;
75990;SDS011;64673;52.276;10.560;2023-02-19T01:21:25;8.63;;;3.30;;
75990;SDS011;64673;52.276;10.560;2023-02-19T01:23:51;9.77;;;3.03;;
75990;SDS011;64673;52.276;10.560;2023-02-19T01:26:19;8.70;;;3.22;;
75990;SDS011;64673;52.276;10.560;2023-02-19T01:28:46;6.88;;;3.22;;
75990;SDS011;64673;52.276;10.560;2023-02-19T01:31:13;8.55;;;3.28;;
75990;SDS011;64673;52.276;10.560;2023-02-19T01:33:47;5.90;;;2.97;;
75990;SDS011;64673;52.276;10.560;2023-02-19T01:36:17;9.70;;;3.33;;
75990;SDS011;64673;52.276;10.560;2023-02-19T01:38:43;7.60;;;3.35;;
75990;SDS011;64673;52.276;10.560;2023-02-19T01:41:10;10.07;;;3.67;;
75990;SDS011;64673;52.276;10.560;2023-02-19T01:43:58;11.82;;;3.70;;
75990;SDS011;64673;52.276;10.560;2023-02-19T01:46:44;9.55;;;3.50;;
75990;SDS011;64673;52.276;10.560;2023-02-19T01:49:13;8.50;;;3.55;;
75990;SDS011;64673;52.276;10.560;2023-02-19T01:51:52;9.15;;;4.05;;
75990;SDS011;64673;52.276;10.560;2023-02-19T01:54:24;9.73;;;4.15;;
75990;SDS011;64673;52.276;10.560;2023-02-19T01:56:52;11.80;;;4.47;;
75990;SDS011;64673;52.276;10.560;2023-02-19T01:59:19;9.35;;;4.47;;
75990;SDS011;64673;52.276;10.560;2023-02-19T02:01:46;14.13;;;4.78;;
75990;SDS011;64673;52.276;10.560;2023-02-19T02:04:12;11.35;;;4.40;;
75990;SDS011;64673;52.276;10.560;2023-02-19T02:06:49;11.95;;;4.28;;
75990;SDS011;64673;52.276;10.560;2023-02-19T02:09:19;7.60;;;3.20;;
75990;SDS011;64673;52.276;10.560;2023-02-19T02:12:07;8.90;;;3.70;;
75990;SDS011;64673;52.276;10.560;2023-02-19T02:14:33;10.10;;;3.55;;
75990;SDS011;64673;52.276;10.560;2023-02-19T02:17:17;8.93;;;3.70;;
75990;SDS011;64673;52.276;10.560;2023-02-19T02:29:02;12.35;;;5.07;;
75990;SDS011;64673;52.276;10.560;2023-02-19T02:31:16;14.80;;;4.65;;
75990;SDS011;64673;52.276;10.560;2023-02-19T02:36:37;10.88;;;4.00;;
75990;SDS011;64673;52.276;10.560;2023-02-19T02:39:07;9.30;;;3.65;;
75990;SDS011;64673;52.276;10.560;2023-02-19T02:41:43;9.35;;;3.70;;
75990;SDS011;64673;52.276;10.560;2023-02-19T02:44:10;7.18;;;3.30;;
75990;SDS011;64673;52.276;10.560;2023-02-19T02:46:36;9.20;;;3.53;;
75990;SDS011;64673;52.276;10.560;2023-02-19T02:49:05;9.82;;;2.90;;
75990;SDS011;64673;52.276;10.560;2023-02-19T02:51:44;8.25;;;2.97;;
75990;SDS011;64673;52.276;10.560;2023-02-19T02:57:06;8.15;;;2.35;;
75990;SDS011;64673;52.276;10.560;2023-02-19T02:59:34;6.78;;;2.55;;
75990;SDS011;64673;52.276;10.560;2023-02-19T03:10:33;3.63;;;1.63;;
75990;SDS011;64673;52.276;10.560;2023-02-19T03:13:26;4.40;;;1.77;;
75990;SDS011;64673;52.276;10.560;2023-02-19T03:16:19;4.15;;;1.40;;
75990;SDS011;64673;52.276;10.560;2023-02-19T03:19:09;2.47;;;1.10;;
75990;SDS011;64673;52.276;10.560;2023-02-19T03:21:55;3.03;;;1.25;;
75990;SDS011;64673;52.276;10.560;2023-02-19T03:24:22;2.47;;;1.00;;
75990;SDS011;64673;52.276;10.560;2023-02-19T03:27:09;4.32;;;1.58;;
75990;SDS011;64673;52.276;10.560;2023-02-19T03:29:38;2.90;;;1.17;;
75990;SDS011;64673;52.276;10.560;2023-02-19T03:32:09;3.08;;;1.27;;
75990;SDS011;64673;52.276;10.560;2023-02-19T03:34:49;4.10;;;1.20;;
75990;SDS011;64673;52.276;10.560;2023-02-19T03:37:21;3.35;;;1.27;;
75990;SDS011;64673;52.276;10.560;2023-02-19T03:39:53;4.18;;;1.60;;
75990;SDS011;64673;52.276;10.560;2023-02-19T03:47:54;2.25;;;0.80;;
75990;SDS011;64673;52.276;10.560;2023-02-19T03:50:41;2.58;;;0.85;;
75990;SDS011;64673;52.276;10.560;2023-02-19T03:58:40;1.58;;;0.57;;
75990;SDS011;64673;52.276;10.560;2023-02-19T04:03:55;1.42;;;0.55;;
75990;SDS011;64673;52.276;10.560;2023-02-19T04:06:28;2.10;;;0.80;;
75990;SDS011;64673;52.276;10.560;2023-02-19T04:09:00;2.42;;;1.08;;
75990;SDS011;64673;52.276;10.560;2023-02-19T04:11:30;3.03;;;1.30;;
75990;SDS011;64673;52.276;10.560;2023-02-19T04:13:58;3.03;;;1.42;;
75990;SDS011;64673;52.276;10.560;2023-02-19T04:16:29;3.58;;;1.38;;
75990;SDS011;64673;52.276;10.560;2023-02-19T04:18:58;3.38;;;1.40;;
75990;SDS011;64673;52.276;10.560;2023-02-19T04:21:29;3.38;;;1.15;;
75990;SDS011;64673;52.276;10.560;2023-02-19T04:23:56;4.68;;;1.48;;
75990;SDS011;64673;52.276;10.560;2023-02-19T04:26:27;4.53;;;1.90;;
75990;SDS011;64673;52.276;10.560;2023-02-19T04:28:53;3.75;;;1.40;;
75990;SDS011;64673;52.276;10.560;2023-02-19T04:31:18;3.00;;;1.38;;
75990;SDS011;64673;52.276;10.560;2023-02-19T04:33:43;3.38;;;1.67;;
75990;SDS011;64673;52.276;10.560;2023-02-19T04:36:09;3.88;;;1.50;;
75990;SDS011;64673;52.276;10.560;2023-02-19T04:38:35;4.85;;;1.75;;
75990;SDS011;64673;52.276;10.560;2023-02-19T04:41:01;6.13;;;1.90;;
75990;SDS011;64673;52.276;10.560;2023-02-19T04:43:26;6.43;;;1.60;;
75990;SDS011;64673;52.276;10.560;2023-02-19T04:45:51;3.50;;;1.92;;
75990;SDS011;64673;52.276;10.560;2023-02-19T04:48:17;3.65;;;1.65;;
75990;SDS011;64673;52.276;10.560;2023-02-19T04:50:42;4.35;;;1.80;;
75990;SDS011;64673;52.276;10.560;2023-02-19T04:53:07;5.05;;;2.20;;
75990;SDS011;64673;52.276;10.560;2023-02-19T04:55:36;4.97;;;1.85;;
75990;SDS011;64673;52.276;10.560;2023-02-19T04:58:03;4.72;;;1.98;;
75990;SDS011;64673;52.276;10.560;2023-02-19T05:00:30;5.20;;;1.90;;
75990;SDS011;64673;52.276;10.560;2023-02-19T05:02:55;5.15;;;1.90;;
75990;SDS011;64673;52.276;10.560;2023-02-19T05:05:21;6.13;;;2.10;;
75990;SDS011;64673;52.276;10.560;2023-02-19T05:07:46;5.38;;;2.08;;
75990;SDS011;64673;52.276;10.560;2023-02-19T05:10:11;5.68;;;2.17;;
75990;SDS011;64673;52.276;10.560;2023-02-19T05:12:37;3.97;;;1.73;;
75990;SDS011;64673;52.276;10.560;2023-02-19T05:15:02;3.50;;;1.52;;
75990;SDS011;64673;52.276;10.560;2023-02-19T05:17:27;4.72;;;1.73;;
75990;SDS011;64673;52.276;10.560;2023-02-19T05:19:53;6.82;;;2.00;;
75990;SDS011;64673;52.276;10.560;2023-02-19T05:22:18;5.37;;;2.10;;
75990;SDS011;64673;52.276;10.560;2023-02-19T05:24:43;7.63;;;1.98;;
75990;SDS011;64673;52.276;10.560;2023-02-19T05:27:11;4.72;;;1.70;;
75990;SDS011;64673;52.276;10.560;2023-02-19T05:29:37;5.65;;;2.38;;
75990;SDS011;64673;52.276;10.560;2023-02-19T05:32:02;4.18;;;1.77;;
75990;SDS011;64673;52.276;10.560;2023-02-19T05:34:27;6.10;;;2.13;;
75990;SDS011;64673;52.276;10.560;2023-02-19T05:36:53;5.68;;;2.25;;
75990;SDS011;64673;52.276;10.560;2023-02-19T05:39:18;7.38;;;2.78;;
75990;SDS011;64673;52.276;10.560;2023-02-19T05:41:43;6.22;;;2.35;;
75990;SDS011;64673;52.276;10.560;2023-02-19T05:44:09;6.85;;;2.50;;
75990;SDS011;64673;52.276;10.560;2023-02-19T05:46:35;5.57;;;2.58;;
75990;SDS011;64673;52.276;10.560;2023-02-19T05:49:00;7.18;;;3.08;;
75990;SDS011;64673;52.276;10.560;2023-02-19T05:51:27;10.02;;;3.42;;
75990;SDS011;64673;52.276;10.560;2023-02-19T05:53:52;5.43;;;2.20;;
75990;SDS011;64673;52.276;10.560;2023-02-19T05:58:50;7.35;;;2.55;;
75990;SDS011;64673;52.276;10.560;2023-02-19T06:01:16;5.93;;;2.20;;
75990;SDS011;64673;52.276;10.560;2023-02-19T06:03:43;3.95;;;1.30;;
75990;SDS011;64673;52.276;10.560;2023-02-19T06:06:11;4.28;;;1.38;;
75990;SDS011;64673;52.276;10.560;2023-02-19T06:08:38;1.67;;;0.57;;
75990;SDS011;64673;52.276;10.560;2023-02-19T06:11:03;1.73;;;0.70;;
75990;SDS011;64673;52.276;10.560;2023-02-19T06:13:28;0.93;;;0.40;;
75990;SDS011;64673;52.276;10.560;2023-02-19T06:15:54;0.95;;;0.40;;
75990;SDS011;64673;52.276;10.560;2023-02-19T06:18:20;2.35;;;0.60;;
75990;SDS011;64673;52.276;10.560;2023-02-19T06:20:45;2.08;;;0.50;;
75990;SDS011;64673;52.276;10.560;2023-02-19T06:23:11;1.85;;;0.52;;
75990;SDS011;64673;52.276;10.560;2023-02-19T06:25:36;1.05;;;0.40;;
75990;SDS011;64673;52.276;10.560;2023-02-19T06:28:01;1.83;;;0.45;;
75990;SDS011;64673;52.276;10.560;2023-02-19T06:30:27;3.22;;;0.80;;
75990;SDS011;64673;52.276;10.560;2023-02-19T06:32:52;1.52;;;0.40;;
75990;SDS011;64673;52.276;10.560;2023-02-19T06:35:18;1.17;;;0.52;;
75990;SDS011;64673;52.276;10.560;2023-02-19T06:37:45;1.90;;;0.68;;
75990;SDS011;64673;52.276;10.560;2023-02-19T06:40:11;1.67;;;0.30;;
75990;SDS011;64673;52.276;10.560;2023-02-19T06:42:36;0.60;;;0.30;;
75990;SDS011;64673;52.276;10.560;2023-02-19T06:45:02;1.60;;;0.30;;
75990;SDS011;64673;52.276;10.560;2023-02-19T06:47:31;1.70;;;0.45;;
75990;SDS011;64673;52.276;10.560;2023-02-19T06:49:57;1.48;;;0.50;;
75990;SDS011;64673;52.276;10.560;2023-02-19T06:52:23;1.88;;;0.50;;
75990;SDS011;64673;52.276;10.560;2023-02-19T06:54:48;1.30;;;0.40;;
75990;SDS011;64673;52.276;10.560;2023-02-19T06:57:13;0.82;;;0.40;;
75990;SDS011;64673;52.276;10.560;2023-02-19T06:59:38;1.05;;;0.50;;
75990;SDS011;64673;52.276;10.560;2023-02-19T07:02:04;1.93;;;0.80;;
75990;SDS011;64673;52.276;10.560;2023-02-19T07:04:29;2.20;;;1.25;;
75990;SDS011;64673;52.276;10.560;2023-02-19T07:06:54;1.50;;;0.70;;
75990;SDS011;64673;52.276;10.560;2023-02-19T07:09:20;2.33;;;1.25;;
75990;SDS011;64673;52.276;10.560;2023-02-19T07:11:45;2.45;;;0.90;;
75990;SDS011;64673;52.276;10.560;2023-02-19T07:14:13;2.80;;;0.95;;
75990;SDS011;64673;52.276;10.560;2023-02-19T07:16:40;3.40;;;1.13;;
75990;SDS011;64673;52.276;10.560;2023-02-19T07:19:05;2.08;;;0.85;;
75990;SDS011;64673;52.276;10.560;2023-02-19T07:21:31;2.40;;;0.88;;
75990;SDS011;64673;52.276;10.560;2023-02-19T07:24:01;2.88;;;1.10;;
75990;SDS011;64673;52.276;10.560;2023-02-19T07:26:26;2.35;;;1.10;;
75990;SDS011;64673;52.276;10.560;2023-02-19T07:28:52;4.70;;;1.73;;
75990;SDS011;64673;52.276;10.560;2023-02-19T07:31:18;3.80;;;1.42;;
75990;SDS011;64673;52.276;10.560;2023-02-19T07:33:45;5.28;;;1.30;;
75990;SDS011;64673;52.276;10.560;2023-02-19T07:36:11;4.03;;;1.60;;
75990;SDS011;64673;52.276;10.560;2023-02-19T07:38:40;4.75;;;1.30;;
75990;SDS011;64673;52.276;10.560;2023-02-19T07:41:06;3.50;;;1.40;;
75990;SDS011;64673;52.276;10.560;2023-02-19T07:43:34;5.22;;;1.63;;
75990;SDS011;64673;52.276;10.560;2023-02-19T07:46:02;3.42;;;1.35;;
75990;SDS011;64673;52.276;10.560;2023-02-19T07:48:32;3.88;;;1.80;;
75990;SDS011;64673;52.276;10.560;2023-02-19T07:50:59;5.32;;;1.70;;
75990;SDS011;64673;52.276;10.560;2023-02-19T07:53:25;3.25;;;1.42;;
75990;SDS011;64673;52.276;10.560;2023-02-19T07:55:51;6.57;;;1.83;;
75990;SDS011;64673;52.276;10.560;2023-02-19T07:58:17;5.25;;;1.95;;
75990;SDS011;64673;52.276;10.560;2023-02-19T08:00:43;6.78;;;2.15;;
75990;SDS011;64673;52.276;10.560;2023-02-19T08:03:08;5.82;;;2.10;;
75990;SDS011;64673;52.276;10.560;2023-02-19T08:05:37;5.07;;;2.28;;
75990;SDS011;64673;52.276;10.560;2023-02-19T08:08:04;6.47;;;2.40;;
75990;SDS011;64673;52.276;10.560;2023-02-19T08:10:31;4.38;;;2.08;;
75990;SDS011;64673;52.276;10.560;2023-02-19T08:13:15;4.55;;;1.80;;
75990;SDS011;64673;52.276;10.560;2023-02-19T08:15:48;4.70;;;1.98;;
75990;SDS011;64673;52.276;10.560;2023-02-19T08:18:15;4.78;;;2.10;;
75990;SDS011;64673;52.276;10.560;2023-02-19T08:20:42;6.40;;;2.53;;
75990;SDS011;64673;52.276;10.560;2023-02-19T08:23:08;4.30;;;1.88;;
75990;SDS011;64673;52.276;10.560;2023-02-19T08:25:34;4.57;;;1.85;;
75990;SDS011;64673;52.276;10.560;2023-02-19T08:28:00;2.95;;;1.25;;
75990;SDS011;64673;52.276;10.560;2023-02-19T08:30:26;3.28;;;1.65;;
75990;SDS011;64673;52.276;10.560;2023-02-19T08:32:52;3.90;;;1.73;;
75990;SDS011;64673;52.276;10.560;2023-02-19T08:35:18;5.80;;;2.03;;
75990;SDS011;64673;52.276;10.560;2023-02-19T08:37:43;9.15;;;2.25;;
75990;SDS011;64673;52.276;10.560;2023-02-19T08:40:09;6.20;;;2.10;;
75990;SDS011;64673;52.276;10.560;2023-02-19T08:42:34;4.30;;;2.28;;
75990;SDS011;64673;52.276;10.560;2023-02-19T08:45:00;4.05;;;1.83;;
75990;SDS011;64673;52.276;10.560;2023-02-19T08:47:25;4.07;;;1.85;;
75990;SDS011;64673;52.276;10.560;2023-02-19T08:49:51;4.80;;;2.00;;
75990;SDS011;64673;52.276;10.560;2023-02-19T08:52:16;6.07;;;2.17;;
75990;SDS011;64673;52.276;10.560;2023-02-19T08:54:41;9.25;;;2.20;;
75990;SDS011;64673;52.276;10.560;2023-02-19T08:57:07;4.72;;;1.90;;
75990;SDS011;64673;52.276;10.560;2023-02-19T08:59:32;4.63;;;1.88;;
75990;SDS011;64673;52.276;10.560;2023-02-19T09:01:57;5.25;;;2.05;;
75990;SDS011;64673;52.276;10.560;2023-02-19T09:04:23;4.35;;;1.73;;
75990;SDS011;64673;52.276;10.560;2023-02-19T09:06:48;3.47;;;1.85;;
75990;SDS011;64673;52.276;10.560;2023-02-19T09:09:14;3.97;;;1.90;;
75990;SDS011;64673;52.276;10.560;2023-02-19T09:11:39;4.63;;;1.85;;
75990;SDS011;64673;52.276;10.560;2023-02-19T09:14:04;3.35;;;1.25;;
75990;SDS011;64673;52.276;10.560;2023-02-19T09:16:31;3.17;;;1.30;;
75990;SDS011;64673;52.276;10.560;2023-02-19T09:18:57;3.88;;;1.63;;
75990;SDS011;64673;52.276;10.560;2023-02-19T09:21:23;3.50;;;1.42;;
75990;SDS011;64673;52.276;10.560;2023-02-19T09:23:48;2.17;;;1.05;;
75990;SDS011;64673;52.276;10.560;2023-02-19T09:26:13;2.50;;;0.82;;
75990;SDS011;64673;52.276;10.560;2023-02-19T09:28:39;2.80;;;1.20;;
75990;SDS011;64673;52.276;10.560;2023-02-19T09:31:06;2.20;;;1.17;;
75990;SDS011;64673;52.276;10.560;2023-02-19T09:33:34;6.13;;;1.60;;
75990;SDS011;64673;52.276;10.560;2023-02-19T09:36:00;3.15;;;1.15;;
75990;SDS011;64673;52.276;10.560;2023-02-19T09:38:26;2.92;;;1.05;;
75990;SDS011;64673;52.276;10.560;2023-02-19T09:40:51;4.90;;;1.20;;
75990;SDS011;64673;52.276;10.560;2023-02-19T09:43:18;5.35;;;1.45;;
75990;SDS011;64673;52.276;10.560;2023-02-19T09:45:44;2.97;;;1.67;;
75990;SDS011;64673;52.276;10.560;2023-02-19T09:48:10;2.55;;;1.15;;
75990;SDS011;64673;52.276;10.560;2023-02-19T09:50:37;3.42;;;1.00;;
75990;SDS011;64673;52.276;10.560;2023-02-19T09:53:10;4.80;;;1.77;;
75990;SDS011;64673;52.276;10.560;2023-02-19T09:55:40;6.07;;;1.40;;
75990;SDS011;64673;52.276;10.560;2023-02-19T09:58:16;12.13;;;3.75;;
75990;SDS011;64673;52.276;10.560;2023-02-19T10:00:49;7.65;;;2.85;;
75990;SDS011;64673;52.276;10.560;2023-02-19T10:03:20;4.47;;;1.48;;
75990;SDS011;64673;52.276;10.560;2023-02-19T10:05:58;3.40;;;1.02;;
75990;SDS011;64673;52.276;10.560;2023-02-19T10:08:32;4.13;;;1.27;;
75990;SDS011;64673;52.276;10.560;2023-02-19T10:11:00;3.10;;;1.00;;
75990;SDS011;64673;52.276;10.560;2023-02-19T10:13:32;1.85;;;1.10;;
75990;SDS011;64673;52.276;10.560;2023-02-19T10:16:10;3.03;;;1.25;;
75990;SDS011;64673;52.276;10.560;2023-02-19T10:18:41;3.45;;;1.38;;
75990;SDS011;64673;52.276;10.560;2023-02-19T10:21:16;3.85;;;1.52;;
75990;SDS011;64673;52.276;10.560;2023-02-19T10:23:49;5.00;;;1.63;;
75990;SDS011;64673;52.276;10.560;2023-02-19T10:26:21;4.50;;;1.23;;
75990;SDS011;64673;52.276;10.560;2023-02-19T10:28:47;3.83;;;1.40;;
75990;SDS011;64673;52.276;10.560;2023-02-19T10:31:20;4.18;;;1.05;;
75990;SDS011;64673;52.276;10.560;2023-02-19T10:33:48;3.03;;;1.05;;
75990;SDS011;64673;52.276;10.560;2023-02-19T10:36:20;5.78;;;1.23;;
75990;SDS011;64673;52.276;10.560;2023-02-19T10:38:50;6.53;;;1.30;;
75990;SDS011;64673;52.276;10.560;2023-02-19T10:41:17;3.83;;;1.20;;
75990;SDS011;64673;52.276;10.560;2023-02-19T10:46:32;9.30;;;3.70;;
75990;SDS011;64673;52.276;10.560;2023-02-19T10:49:16;12.85;;;4.40;;
75990;SDS011;64673;52.276;10.560;2023-02-19T10:51:43;4.63;;;2.00;;
75990;SDS011;64673;52.276;10.560;2023-02-19T10:54:15;2.70;;;1.25;;
75990;SDS011;64673;52.276;10.560;2023-02-19T10:56:41;6.38;;;1.50;;
75990;SDS011;64673;52.276;10.560;2023-02-19T10:59:26;3.42;;;1.08;;
75990;SDS011;64673;52.276;10.560;2023-02-19T11:01:56;4.50;;;1.58;;
75990;SDS011;64673;52.276;10.560;2023-02-19T11:04:25;13.38;;;5.00;;
75990;SDS011;64673;52.276;10.560;2023-02-19T11:06:52;17.80;;;6.15;;
75990;SDS011;64673;52.276;10.560;2023-02-19T11:09:29;3.42;;;1.10;;
75990;SDS011;64673;52.276;10.560;2023-02-19T11:12:09;10.48;;;4.50;;
75990;SDS011;64673;52.276;10.560;2023-02-19T11:14:36;7.70;;;2.15;;
75990;SDS011;64673;52.276;10.560;2023-02-19T11:17:16;3.97;;;1.25;;
75990;SDS011;64673;52.276;10.560;2023-02-19T11:19:53;5.32;;;1.38;;
75990;SDS011;64673;52.276;10.560;2023-02-19T11:25:42;5.38;;;1.05;;
75990;SDS011;64673;52.276;10.560;2023-02-19T11:28:02;6.10;;;1.10;;
75990;SDS011;64673;52.276;10.560;2023-02-19T11:30:33;1.95;;;1.00;;
75990;SDS011;64673;52.276;10.560;2023-02-19T11:35:42;3.28;;;1.33;;
75990;SDS011;64673;52.276;10.560;2023-02-19T11:38:09;5.93;;;1.30;;
75990;SDS011;64673;52.276;10.560;2023-02-19T11:56:50;11.80;;;1.40;;
75990;SDS011;64673;52.276;10.560;2023-02-19T11:59:30;4.70;;;1.42;;
75990;SDS011;64673;52.276;10.560;2023-02-19T12:02:17;2.67;;;1.05;;
75990;SDS011;64673;52.276;10.560;2023-02-19T12:07:56;3.35;;;1.13;;
75990;SDS011;64673;52.276;10.560;2023-02-19T12:16:04;8.32;;;1.95;;
75990;SDS011;64673;52.276;10.560;2023-02-19T12:21:12;3.53;;;1.60;;
75990;SDS011;64673;52.276;10.560;2023-02-19T12:26:46;5.93;;;2.05;;
75990;SDS011;64673;52.276;10.560;2023-02-19T12:29:50;3.75;;;1.20;;
75990;SDS011;64673;52.276;10.560;2023-02-19T12:46:03;4.65;;;0.85;;
75990;SDS011;64673;52.276;10.560;2023-02-19T12:51:04;6.45;;;0.98;;
75990;SDS011;64673;52.276;10.560;2023-02-19T12:53:39;3.50;;;0.52;;
75990;SDS011;64673;52.276;10.560;2023-02-19T12:56:16;1.88;;;0.40;;
75990;SDS011;64673;52.276;10.560;2023-02-19T12:58:49;2.30;;;0.40;;
75990;SDS011;64673;52.276;10.560;2023-02-19T13:01:23;1.83;;;0.50;;
75990;SDS011;64673;52.276;10.560;2023-02-19T13:04:01;3.35;;;0.60;;
75990;SDS011;64673;52.276;10.560;2023-02-19T13:06:33;2.90;;;0.68;;
75990;SDS011;64673;52.276;10.560;2023-02-19T13:09:06;1.25;;;0.40;;
75990;SDS011;64673;52.276;10.560;2023-02-19T13:11:43;2.15;;;0.55;;
75990;SDS011;64673;52.276;10.560;2023-02-19T13:16:43;0.85;;;0.20;;
75990;SDS011;64673;52.276;10.560;2023-02-19T13:19:12;1.92;;;0.38;;
75990;SDS011;64673;52.276;10.560;2023-02-19T13:21:39;2.03;;;0.20;;
75990;SDS011;64673;52.276;10.560;2023-02-19T13:24:25;1.30;;;0.30;;
75990;SDS011;64673;52.276;10.560;2023-02-19T13:37:53;2.78;;;0.80;;
75990;SDS011;64673;52.276;10.560;2023-02-19T13:40:26;1.80;;;0.60;;
75990;SDS011;64673;52.276;10.560;2023-02-19T13:42:57;1.25;;;0.40;;
75990;SDS011;64673;52.276;10.560;2023-02-19T13:45:35;2.15;;;0.60;;
75990;SDS011;64673;52.276;10.560;2023-02-19T13:50:47;3.42;;;0.70;;
75990;SDS011;64673;52.276;10.560;2023-02-19T13:53:59;2.83;;;0.70;;
75990;SDS011;64673;52.276;10.560;2023-02-19T14:09:45;0.88;;;0.43;;
75990;SDS011;64673;52.276;10.560;2023-02-19T14:14:51;2.17;;;0.40;;
75990;SDS011;64673;52.276;10.560;2023-02-19T14:19:50;1.90;;;0.93;;
75990;SDS011;64673;52.276;10.560;2023-02-19T14:27:53;1.80;;;0.50;;
75990;SDS011;64673;52.276;10.560;2023-02-19T14:30:24;3.95;;;0.85;;
75990;SDS011;64673;52.276;10.560;2023-02-19T14:32:50;1.40;;;0.50;;
75990;SDS011;64673;52.276;10.560;2023-02-19T14:35:22;3.70;;;0.65;;
75990;SDS011;64673;52.276;10.560;2023-02-19T14:37:53;1.55;;;0.73;;
75990;SDS011;64673;52.276;10.560;2023-02-19T14:40:22;3.70;;;0.65;;
75990;SDS011;64673;52.276;10.560;2023-02-19T14:43:13;2.47;;;0.43;;
75990;SDS011;64673;52.276;10.560;2023-02-19T14:45:43;1.63;;;0.50;;
75990;SDS011;64673;52.276;10.560;2023-02-19T14:48:20;2.35;;;0.45;;
75990;SDS011;64673;52.276;10.560;2023-02-19T14:51:03;2.13;;;0.70;;
75990;SDS011;64673;52.276;10.560;2023-02-19T14:53:36;2.75;;;0.60;;
75990;SDS011;64673;52.276;10.560;2023-02-19T14:56:03;4.75;;;0.50;;
75990;SDS011;64673;52.276;10.560;2023-02-19T14:58:31;2.42;;;0.60;;
75990;SDS011;64673;52.276;10.560;2023-02-19T15:00:57;1.55;;;0.55;;
75990;SDS011;64673;52.276;10.560;2023-02-19T15:03:25;1.90;;;0.47;;
75990;SDS011;64673;52.276;10.560;2023-02-19T15:05:54;1.27;;;0.50;;
75990;SDS011;64673;52.276;10.560;2023-02-19T15:08:28;2.80;;;1.05;;
75990;SDS011;64673;52.276;10.560;2023-02-19T15:10:58;2.83;;;0.57;;
75990;SDS011;64673;52.276;10.560;2023-02-19T15:13:26;2.97;;;0.47;;
75990;SDS011;64673;52.276;10.560;2023-02-19T15:15:53;1.85;;;0.30;;
75990;SDS011;64673;52.276;10.560;2023-02-19T15:18:23;1.08;;;0.32;;
75990;SDS011;64673;52.276;10.560;2023-02-19T15:20:50;1.83;;;0.45;;
75990;SDS011;64673;52.276;10.560;2023-02-19T15:23:23;1.13;;;0.30;;
75990;SDS011;64673;52.276;10.560;2023-02-19T15:25:50;2.70;;;0.50;;
75990;SDS011;64673;52.276;10.560;2023-02-19T15:30:47;4.35;;;0.50;;
75990;SDS011;64673;52.276;10.560;2023-02-19T15:33:17;4.20;;;1.00;;
75990;SDS011;64673;52.276;10.560;2023-02-19T15:35:50;2.60;;;0.60;;
75990;SDS011;64673;52.276;10.560;2023-02-19T15:38:19;1.70;;;0.50;;
75990;SDS011;64673;52.276;10.560;2023-02-19T15:40:45;3.08;;;0.80;;
75990;SDS011;64673;52.276;10.560;2023-02-19T15:43:17;2.28;;;0.50;;
75990;SDS011;64673;52.276;10.560;2023-02-19T15:45:48;7.28;;;0.70;;
75990;SDS011;64673;52.276;10.560;2023-02-19T15:48:16;3.60;;;0.75;;
75990;SDS011;64673;52.276;10.560;2023-02-19T15:50:46;2.38;;;0.85;;
75990;SDS011;64673;52.276;10.560;2023-02-19T15:53:20;2.90;;;0.80;;
75990;SDS011;64673;52.276;10.560;2023-02-19T16:00:58;3.55;;;0.93;;
75990;SDS011;64673;52.276;10.560;2023-02-19T16:03:27;2.42;;;0.90;;
75990;SDS011;64673;52.276;10.560;2023-02-19T16:06:14;3.95;;;0.60;;
75990;SDS011;64673;52.276;10.560;2023-02-19T16:08:42;2.78;;;0.60;;
75990;SDS011;64673;52.276;10.560;2023-02-19T16:13:47;1.02;;;0.40;;
75990;SDS011;64673;52.276;10.560;2023-02-19T16:19:09;2.05;;;0.32;;
75990;SDS011;64673;52.276;10.560;2023-02-19T16:21:35;2.33;;;0.50;;
75990;SDS011;64673;52.276;10.560;2023-02-19T16:24:04;1.58;;;0.40;;
75990;SDS011;64673;52.276;10.560;2023-02-19T16:26:41;2.05;;;0.47;;
75990;SDS011;64673;52.276;10.560;2023-02-19T16:29:22;1.80;;;0.50;;
75990;SDS011;64673;52.276;10.560;2023-02-19T16:31:51;1.80;;;0.50;;
75990;SDS011;64673;52.276;10.560;2023-02-19T16:34:31;1.77;;;0.70;;
75990;SDS011;64673;52.276;10.560;2023-02-19T16:36:58;3.05;;;0.60;;
75990;SDS011;64673;52.276;10.560;2023-02-19T16:39:25;1.52;;;0.52;;
75990;SDS011;64673;52.276;10.560;2023-02-19T16:46:56;1.98;;;0.55;;
75990;SDS011;64673;52.276;10.560;2023-02-19T16:49:27;2.50;;;0.75;;
75990;SDS011;64673;52.276;10.560;2023-02-19T16:51:53;1.52;;;0.50;;
75990;SDS011;64673;52.276;10.560;2023-02-19T16:54:18;4.63;;;0.77;;
75990;SDS011;64673;52.276;10.560;2023-02-19T16:56:45;2.65;;;0.60;;
75990;SDS011;64673;52.276;10.560;2023-02-19T16:59:10;2.78;;;0.82;;
75990;SDS011;64673;52.276;10.560;2023-02-19T17:01:36;2.88;;;1.00;;
75990;SDS011;64673;52.276;10.560;2023-02-19T17:04:03;2.92;;;0.70;;
75990;SDS011;64673;52.276;10.560;2023-02-19T17:06:31;2.60;;;0.57;;
75990;SDS011;64673;52.276;10.560;2023-02-19T17:08:58;2.72;;;0.82;;
75990;SDS011;64673;52.276;10.560;2023-02-19T17:11:24;3.08;;;1.00;;
75990;SDS011;64673;52.276;10.560;2023-02-19T17:13:49;2.60;;;1.00;;
75990;SDS011;64673;52.276;10.560;2023-02-19T17:16:16;4.82;;;1.27;;
75990;SDS011;64673;52.276;10.560;2023-02-19T17:18:43;3.28;;;1.23;;
75990;SDS011;64673;52.276;10.560;2023-02-19T17:21:13;3.38;;;1.25;;
75990;SDS011;64673;52.276;10.560;2023-02-19T17:23:41;2.92;;;1.30;;
75990;SDS011;64673;52.276;10.560;2023-02-19T17:26:08;2.78;;;1.40;;